createdAt,value
2023-06-27T00:04:16.454Z,101188.81
2023-06-27T00:09:19.056Z,101197.34
2023-06-27T00:14:22.928Z,101191.84
2023-06-27T00:19:25.476Z,101206.03
2023-06-27T00:24:28.008Z,101198.94
2023-06-27T00:29:31.957Z,101204.16
2023-06-27T00:34:34.536Z,101199.66
2023-06-27T00:39:37.066Z,101208.22
2023-06-27T00:44:41.000Z,101205.28
2023-06-27T00:49:43.634Z,101208.50
2023-06-27T00:54:46.477Z,101213.47
2023-06-27T00:59:51.548Z,101196.47
2023-06-27T01:04:54.748Z,101194.50
2023-06-27T01:10:04.452Z,101203.88
2023-06-27T01:15:09.712Z,101194.59
2023-06-27T01:20:13.650Z,101195.22
2023-06-27T01:25:18.038Z,101202.16
2023-06-27T01:30:20.798Z,101191.31
2023-06-27T01:35:29.802Z,101192.75
2023-06-27T01:40:38.548Z,101188.09
2023-06-27T01:45:42.035Z,101200.22
2023-06-27T01:50:45.012Z,101205.34
2023-06-27T01:55:48.865Z,101199.03
2023-06-27T02:00:51.609Z,101193.75
2023-06-27T02:05:54.187Z,101198.22
2023-06-27T02:10:58.052Z,101194.75
2023-06-27T02:16:00.559Z,101185.91
2023-06-27T02:21:03.168Z,101192.09
2023-06-27T02:26:08.051Z,101190.28
2023-06-27T02:31:10.635Z,101193.84
2023-06-27T02:36:13.918Z,101195.69
2023-06-27T02:41:17.996Z,101189.50
2023-06-27T02:46:20.794Z,101200.81
2023-06-27T02:51:24.368Z,101198.91
2023-06-27T02:56:28.273Z,101188.03
2023-06-27T03:01:30.834Z,101198.38
2023-06-27T03:06:33.416Z,101191.19
2023-06-27T03:11:37.291Z,101191.03
2023-06-27T03:16:39.799Z,101181.31
2023-06-27T03:21:42.382Z,101187.66
2023-06-27T03:26:46.228Z,101188.50
2023-06-27T03:31:48.838Z,101187.41
2023-06-27T03:36:51.412Z,101190.97
2023-06-27T03:41:55.276Z,101190.06
2023-06-27T03:46:58.004Z,101197.22
2023-06-27T03:52:00.490Z,101191.03
2023-06-27T03:57:04.602Z,101200.91
2023-06-27T04:02:07.675Z,101190.44
2023-06-27T04:07:10.350Z,101194.25
2023-06-27T04:12:14.272Z,101189.22
2023-06-27T04:17:16.932Z,101201.81
2023-06-27T04:22:19.517Z,101189.63
2023-06-27T04:27:24.136Z,101198.75
2023-06-27T04:32:26.675Z,101199.03
2023-06-27T04:37:30.278Z,101191.53
2023-06-27T04:42:34.144Z,101186.59
2023-06-27T04:47:37.916Z,101192.28
2023-06-27T04:52:40.476Z,101186.66
2023-06-27T04:57:44.353Z,101189.75
2023-06-27T05:02:50.057Z,101189.28
2023-06-27T05:07:52.965Z,101189.72
2023-06-27T05:12:56.820Z,101191.06
2023-06-27T05:18:26.702Z,101189.78
2023-06-27T05:23:29.225Z,101184.09
2023-06-27T05:28:33.113Z,101187.19
2023-06-27T05:33:35.627Z,101182.38
2023-06-27T05:38:38.151Z,101166.16
2023-06-27T05:43:42.015Z,101169.13
2023-06-27T05:48:44.557Z,101175.69
2023-06-27T05:53:47.076Z,101181.31
2023-06-27T05:58:50.936Z,101191.59
2023-06-27T06:03:55.103Z,101188.22
2023-06-27T06:08:57.717Z,101193.16
2023-06-27T06:14:01.580Z,101192.19
2023-06-27T06:19:04.817Z,101205.16
2023-06-27T06:24:09.165Z,101203.81
2023-06-27T06:29:14.966Z,101214.97
2023-06-27T06:34:17.583Z,101210.94
2023-06-27T06:39:20.123Z,101210.66
2023-06-27T06:44:23.960Z,101201.81
2023-06-27T06:49:26.472Z,101208.34
2023-06-27T06:54:29.028Z,101216.72
2023-06-27T06:59:32.885Z,101207.47
2023-06-27T07:04:35.734Z,101201.97
2023-06-27T07:09:38.276Z,101197.06
2023-06-27T07:14:42.176Z,101201.94
2023-06-27T07:19:45.047Z,101200.56
2023-06-27T07:24:47.609Z,101199.75
2023-06-27T07:29:51.477Z,101209.13
2023-06-27T07:34:54.598Z,101199.53
2023-06-27T07:39:59.064Z,101191.16
2023-06-27T07:45:03.031Z,101210.16
2023-06-27T07:50:06.339Z,101200.97
2023-06-27T07:55:09.743Z,101200.72
2023-06-27T08:00:14.752Z,101194.94
2023-06-27T08:05:17.369Z,101193.47
2023-06-27T08:10:20.035Z,101198.72
2023-06-27T08:15:24.084Z,101196.16
2023-06-27T08:20:26.754Z,101201.97
2023-06-27T08:25:29.278Z,101183.94
2023-06-27T08:30:33.530Z,101192.91
2023-06-27T08:35:36.596Z,101183.81
2023-06-27T08:40:39.337Z,101172.56
2023-06-27T08:45:43.622Z,101164.81
2023-06-27T08:50:46.628Z,101169.63
2023-06-27T08:55:55.056Z,101172.47
2023-06-27T09:00:59.157Z,101164.63
2023-06-27T09:06:04.537Z,101167.41
2023-06-27T09:11:10.762Z,101175.47
2023-06-27T09:16:16.702Z,101162.44
2023-06-27T09:21:22.274Z,101150.84
2023-06-27T09:26:28.782Z,101151.88
2023-06-27T09:31:34.306Z,101161.75
2023-06-27T09:41:46.764Z,101160.69
2023-06-27T09:46:52.579Z,101142.97
2023-06-27T09:51:55.189Z,101141.28
2023-06-27T09:56:58.398Z,101135.03
2023-06-27T10:02:02.359Z,101134.25
2023-06-27T10:07:05.533Z,101140.63
2023-06-27T10:12:09.261Z,101129.03
2023-06-27T10:17:19.605Z,101126.41
2023-06-27T10:22:24.353Z,101135.56
2023-06-27T10:27:27.594Z,101127.38
2023-06-27T10:32:42.093Z,101111.44
2023-06-27T10:37:44.623Z,101108.81
2023-06-27T10:42:54.811Z,101117.81
2023-06-27T10:48:04.076Z,101123.09
2023-06-27T10:53:08.245Z,101125.53
2023-06-27T10:58:12.564Z,101117.34
2023-06-27T11:03:20.431Z,101119.63
2023-06-27T11:08:28.302Z,101149.03
2023-06-27T11:13:32.063Z,101169.69
2023-06-27T11:18:36.122Z,101168.09
2023-06-27T11:23:40.555Z,101189.16
2023-06-27T11:28:45.349Z,101197.56
2023-06-27T11:33:56.296Z,101203.00
2023-06-27T11:38:58.861Z,101210.63
2023-06-27T11:44:01.513Z,101199.59
2023-06-27T11:49:05.392Z,101193.66
2023-06-27T11:54:09.063Z,101191.53
2023-06-27T11:59:11.758Z,101186.13
2023-06-27T12:04:16.960Z,101188.53
2023-06-27T12:09:23.163Z,101188.09
2023-06-27T12:14:27.161Z,101183.06
2023-06-27T12:19:31.028Z,101181.75
2023-06-27T12:24:33.543Z,101179.06
2023-06-27T12:29:36.079Z,101177.28
2023-06-27T12:34:39.945Z,101169.38
2023-06-27T12:39:42.477Z,101162.38
2023-06-27T12:44:45.476Z,101151.69
2023-06-27T12:49:49.316Z,101152.00
2023-06-27T12:54:51.873Z,101145.59
2023-06-27T12:59:54.955Z,101135.59
2023-06-27T13:04:58.951Z,101148.72
2023-06-27T13:10:01.548Z,101142.00
2023-06-27T13:15:04.244Z,101134.50
2023-06-27T13:20:09.867Z,101130.34
2023-06-27T13:25:13.976Z,101123.81
2023-06-27T13:30:19.039Z,101119.84
2023-06-27T13:35:24.550Z,101114.78
2023-06-27T13:40:27.168Z,101119.34
2023-06-27T13:45:29.965Z,101110.53
2023-06-27T13:50:33.851Z,101106.06
2023-06-27T13:55:36.375Z,101106.25
2023-06-27T14:00:39.143Z,101103.75
2023-06-27T14:05:43.128Z,101108.31
2023-06-27T14:10:46.125Z,101115.41
2023-06-27T14:15:48.905Z,101112.00
2023-06-27T14:20:52.830Z,101111.13
2023-06-27T14:25:55.408Z,101111.97
2023-06-27T14:30:57.953Z,101116.38
2023-06-27T14:36:01.835Z,101091.34
2023-06-27T14:41:04.371Z,101086.16
2023-06-27T14:46:06.922Z,101077.19
2023-06-27T14:51:13.602Z,101093.19
2023-06-27T14:56:17.146Z,101093.75
2023-06-27T15:01:23.798Z,101092.44
2023-06-27T15:06:27.717Z,101111.53
2023-06-27T15:11:30.272Z,101091.63
2023-06-27T15:16:32.801Z,101093.47
2023-06-27T15:21:36.693Z,101091.44
2023-06-27T15:26:39.232Z,101078.03
2023-06-27T15:31:41.817Z,101073.03
2023-06-27T15:36:45.728Z,101067.91
2023-06-27T15:41:48.242Z,101060.13
2023-06-27T15:46:50.763Z,101058.53
2023-06-27T15:51:54.639Z,101059.56
2023-06-27T15:56:57.162Z,101054.28
2023-06-27T16:01:59.672Z,101053.38
2023-06-27T16:07:03.606Z,101053.44
2023-06-27T16:12:08.316Z,101045.47
2023-06-27T16:17:12.129Z,101056.03
2023-06-27T16:22:16.007Z,101074.53
2023-06-27T16:27:18.524Z,101066.09
2023-06-27T16:32:21.109Z,101073.59
2023-06-27T16:37:24.992Z,101072.34
2023-06-27T16:42:27.527Z,101073.06
2023-06-27T16:47:30.092Z,101069.44
2023-06-27T16:52:34.112Z,101078.59
2023-06-27T16:57:36.824Z,101072.44
2023-06-27T17:02:39.903Z,101079.38
2023-06-27T17:07:44.437Z,101080.03
2023-06-27T17:12:47.164Z,101082.47
2023-06-27T17:17:49.856Z,101068.22
2023-06-27T17:22:53.714Z,101071.59
2023-06-27T17:27:56.240Z,101063.44
2023-06-27T17:32:58.836Z,101071.44
2023-06-27T17:38:02.706Z,101061.59
2023-06-27T17:43:05.228Z,101075.06
2023-06-27T17:48:07.960Z,101073.44
2023-06-27T17:53:11.881Z,101062.81
2023-06-27T17:58:14.408Z,101073.50
2023-06-27T18:03:16.946Z,101058.44
2023-06-27T18:08:20.921Z,101062.00
2023-06-27T18:13:23.547Z,101065.31
2023-06-27T18:18:26.107Z,101071.25
2023-06-27T18:23:31.024Z,101075.16
2023-06-27T18:28:34.559Z,101074.03
2023-06-27T18:33:37.110Z,101067.81
2023-06-27T18:38:42.475Z,101075.41
2023-06-27T18:43:45.107Z,101073.25
2023-06-27T18:48:48.110Z,101078.22
2023-06-27T18:53:52.350Z,101075.31
2023-06-27T18:58:54.913Z,101074.19
2023-06-27T19:03:57.496Z,101078.44
2023-06-27T19:09:01.456Z,101092.41
2023-06-27T19:14:10.425Z,101093.91
2023-06-27T19:19:16.075Z,101083.88
2023-06-27T19:24:20.495Z,101096.19
2023-06-27T19:29:23.109Z,101089.78
2023-06-27T19:34:25.796Z,101093.25
2023-06-27T19:39:29.661Z,101097.47
2023-06-27T19:44:32.180Z,101095.50
2023-06-27T19:49:36.203Z,101102.22
2023-06-27T19:54:40.096Z,101104.63
2023-06-27T19:59:43.044Z,101105.22
2023-06-27T20:04:45.664Z,101110.47
2023-06-27T20:09:49.616Z,101115.69
2023-06-27T20:14:52.145Z,101117.34
2023-06-27T20:19:54.742Z,101118.03
2023-06-27T20:24:59.443Z,101122.28
2023-06-27T20:30:02.000Z,101126.38
2023-06-27T20:35:05.428Z,101128.59
2023-06-27T20:40:10.487Z,101129.06
2023-06-27T20:45:13.181Z,101136.59
2023-06-27T20:50:15.967Z,101140.75
2023-06-27T20:55:20.560Z,101140.50
2023-06-27T21:00:23.109Z,101140.25
2023-06-27T21:05:25.838Z,101144.47
2023-06-27T21:10:29.774Z,101149.44
2023-06-27T21:15:32.282Z,101143.81
2023-06-27T21:20:34.800Z,101149.22
2023-06-27T21:25:38.649Z,101141.94
2023-06-27T21:30:42.738Z,101147.47
2023-06-27T21:35:45.658Z,101149.88
2023-06-27T21:40:49.505Z,101156.66
2023-06-27T21:45:52.213Z,101158.06
2023-06-27T21:50:54.735Z,101162.34
2023-06-27T21:56:00.849Z,101153.13
2023-06-27T22:01:03.428Z,101158.19
2023-06-27T22:06:06.293Z,101157.88
2023-06-27T22:11:10.231Z,101163.84
2023-06-27T22:16:12.773Z,101158.06
2023-06-27T22:21:15.556Z,101158.59
2023-06-27T22:26:19.449Z,101174.13
2023-06-27T22:31:24.898Z,101153.56
2023-06-27T22:36:27.516Z,101156.72
2023-06-27T22:41:31.451Z,101152.84
2023-06-27T22:46:34.157Z,101152.63
2023-06-27T22:51:37.912Z,101154.56
2023-06-27T22:56:41.881Z,101153.84
2023-06-27T23:01:44.446Z,101159.19
2023-06-27T23:06:47.016Z,101161.78
2023-06-27T23:11:50.901Z,101155.41
2023-06-27T23:16:53.443Z,101160.53
2023-06-27T23:22:01.263Z,101155.34
2023-06-27T23:27:05.614Z,101155.34
2023-06-27T23:32:09.299Z,101171.34
2023-06-27T23:37:11.804Z,101162.75
2023-06-27T23:42:15.773Z,101166.31
2023-06-27T23:47:18.317Z,101162.84
2023-06-27T23:52:20.814Z,101153.13
2023-06-27T23:57:24.675Z,101153.19
